createdAt,value
2023-05-02T00:00:47.910Z,4.85
2023-05-02T00:05:54.449Z,4.55
2023-05-02T00:11:03.724Z,7.18
2023-05-02T00:16:11.392Z,4.88
2023-05-02T00:21:21.078Z,4.38
2023-05-02T00:26:24.803Z,4.38
2023-05-02T00:31:29.539Z,4.00
2023-05-02T00:36:36.656Z,4.28
2023-05-02T00:41:41.958Z,4.30
2023-05-02T00:47:10.044Z,5.50
2023-05-02T00:52:29.004Z,4.93
2023-05-02T00:57:32.907Z,5.30
2023-05-02T01:02:49.952Z,8.20
2023-05-02T01:08:11.820Z,4.65
2023-05-02T01:13:22.071Z,5.35
2023-05-02T01:18:29.979Z,6.32
2023-05-02T01:23:42.331Z,5.82
2023-05-02T01:29:05.385Z,7.37
2023-05-02T01:34:11.956Z,5.82
2023-05-02T01:39:20.453Z,7.28
2023-05-02T01:44:32.826Z,7.40
2023-05-02T01:49:38.625Z,5.83
2023-05-02T01:54:43.158Z,5.07
2023-05-02T01:59:52.888Z,6.80
2023-05-02T02:04:57.586Z,4.80
2023-05-02T02:10:03.082Z,4.87
2023-05-02T02:15:15.213Z,6.53
2023-05-02T02:20:18.864Z,4.97
2023-05-02T02:25:22.174Z,4.57
2023-05-02T02:30:27.261Z,5.80
2023-05-02T02:35:35.647Z,5.07
2023-05-02T02:40:46.182Z,5.15
2023-05-02T02:45:59.486Z,6.15
2023-05-02T02:51:14.230Z,10.23
2023-05-02T02:56:21.680Z,9.40
2023-05-02T03:01:31.434Z,5.53
2023-05-02T03:06:34.896Z,10.15
2023-05-02T03:11:38.138Z,7.22
2023-05-02T03:16:43.306Z,7.13
2023-05-02T03:21:46.925Z,10.17
2023-05-02T03:26:50.238Z,9.85
2023-05-02T03:31:55.206Z,9.75
2023-05-02T03:36:58.487Z,6.88
2023-05-02T03:42:01.881Z,5.38
2023-05-02T03:47:07.798Z,5.57
2023-05-02T03:52:13.435Z,4.32
2023-05-02T03:57:16.627Z,4.47
2023-05-02T04:02:25.837Z,5.07
2023-05-02T04:07:29.129Z,4.00
2023-05-02T04:12:32.356Z,4.07
2023-05-02T04:17:37.055Z,6.15
2023-05-02T04:22:40.944Z,5.88
2023-05-02T04:27:44.224Z,4.57
2023-05-02T04:32:49.391Z,6.40
2023-05-02T04:37:52.869Z,5.47
2023-05-02T04:42:56.076Z,6.53
2023-05-02T04:48:00.729Z,4.70
2023-05-02T04:53:03.961Z,3.65
2023-05-02T04:58:07.040Z,3.30
2023-05-02T05:03:12.004Z,7.90
2023-05-02T05:08:19.169Z,3.17
2023-05-02T05:13:22.196Z,4.32
2023-05-02T05:18:40.330Z,4.78
2023-05-02T05:23:46.417Z,4.68
2023-05-02T05:28:50.745Z,7.93
2023-05-02T05:33:55.417Z,4.32
2023-05-02T05:38:58.823Z,5.25
2023-05-02T05:44:02.150Z,4.88
2023-05-02T05:49:07.446Z,3.30
2023-05-02T05:54:10.614Z,9.32
2023-05-02T05:59:13.814Z,3.53
2023-05-02T06:04:18.479Z,3.60
2023-05-02T06:09:21.947Z,3.58
2023-05-02T06:14:25.430Z,4.65
2023-05-02T06:19:29.999Z,5.47
2023-05-02T06:24:33.439Z,5.72
2023-05-02T06:29:36.824Z,4.82
2023-05-02T06:34:41.903Z,4.95
2023-05-02T06:39:45.166Z,5.18
2023-05-02T06:44:49.384Z,5.90
2023-05-02T06:49:54.119Z,6.60
2023-05-02T06:54:57.497Z,7.25
2023-05-02T07:00:00.972Z,6.60
2023-05-02T07:05:06.470Z,5.25
2023-05-02T07:10:10.574Z,5.65
2023-05-02T07:15:14.471Z,6.25
2023-05-02T07:20:26.657Z,4.10
2023-05-02T07:25:30.129Z,5.82
2023-05-02T07:30:33.447Z,5.57
2023-05-02T07:35:38.392Z,4.68
2023-05-02T07:40:41.534Z,6.40
2023-05-02T07:45:45.063Z,5.57
2023-05-02T07:50:50.030Z,6.80
2023-05-02T07:55:53.307Z,7.50
2023-05-02T08:00:56.466Z,8.88
2023-05-02T08:06:09.736Z,10.77
2023-05-02T08:11:12.977Z,15.60
2023-05-02T08:16:16.209Z,15.15
2023-05-02T08:21:20.815Z,14.43
2023-05-02T08:26:24.940Z,16.33
2023-05-02T08:31:33.640Z,15.32
2023-05-02T08:36:38.413Z,15.25
2023-05-02T08:41:41.601Z,17.60
2023-05-02T08:46:50.262Z,17.70
2023-05-02T08:51:58.470Z,18.27
2023-05-02T08:57:03.608Z,18.75
2023-05-02T09:02:19.327Z,19.38
2023-05-02T09:07:24.126Z,17.10
2023-05-02T09:12:27.961Z,16.42
2023-05-02T09:17:41.705Z,15.52
2023-05-02T09:22:52.504Z,14.95
2023-05-02T09:28:02.256Z,14.80
2023-05-02T09:33:05.916Z,14.45
2023-05-02T09:38:21.252Z,14.75
2023-05-02T09:43:24.976Z,14.55
2023-05-02T09:48:29.997Z,14.00
2023-05-02T09:53:34.511Z,13.70
2023-05-02T09:58:38.814Z,14.73
2023-05-02T10:03:42.798Z,14.65
2023-05-02T10:08:49.543Z,15.10
2023-05-02T10:13:53.676Z,13.07
2023-05-02T10:19:04.418Z,10.68
2023-05-02T10:24:09.322Z,12.23
2023-05-02T10:29:13.072Z,10.15
2023-05-02T10:34:17.516Z,10.05
2023-05-02T10:39:25.744Z,10.95
2023-05-02T10:44:36.040Z,12.75
2023-05-02T10:49:52.428Z,8.43
2023-05-02T10:55:15.553Z,8.38
2023-05-02T11:00:26.543Z,8.02
2023-05-02T11:05:30.554Z,12.38
2023-05-02T11:10:35.231Z,9.10
2023-05-02T11:15:58.245Z,9.40
2023-05-02T11:21:29.883Z,17.13
2023-05-02T11:26:40.819Z,9.50
2023-05-02T11:32:05.419Z,6.55
2023-05-02T11:37:13.544Z,5.15
2023-05-02T11:42:32.154Z,5.60
2023-05-02T11:47:36.159Z,5.80
2023-05-02T11:52:40.333Z,6.95
2023-05-02T11:57:44.896Z,5.40
2023-05-02T12:02:52.112Z,5.60
2023-05-02T12:07:57.686Z,6.13
2023-05-02T12:13:08.382Z,4.97
2023-05-02T12:18:14.462Z,8.00
2023-05-02T12:23:18.017Z,5.00
2023-05-02T12:28:24.546Z,4.45
2023-05-02T12:33:27.703Z,5.88
2023-05-02T12:38:31.012Z,5.60
2023-05-02T12:43:48.457Z,4.25
2023-05-02T12:49:03.416Z,4.22
2023-05-02T12:54:07.230Z,5.00
2023-05-02T12:59:26.525Z,3.88
2023-05-02T13:04:39.205Z,4.72
2023-05-02T13:09:42.368Z,2.95
2023-05-02T13:14:46.971Z,3.95
2023-05-02T13:20:00.895Z,2.67
2023-05-02T13:25:05.310Z,4.40
2023-05-02T13:30:12.063Z,4.80
2023-05-02T13:35:16.015Z,5.13
2023-05-02T13:40:19.390Z,7.07
2023-05-02T13:45:24.788Z,5.82
2023-05-02T13:50:28.175Z,4.40
2023-05-02T13:55:31.516Z,6.20
2023-05-02T14:00:36.542Z,7.22
2023-05-02T14:05:43.803Z,10.75
2023-05-02T14:10:47.341Z,6.97
2023-05-02T14:15:52.101Z,10.35
2023-05-02T14:20:55.647Z,8.15
2023-05-02T14:26:00.465Z,6.20
2023-05-02T14:31:05.468Z,9.15
2023-05-02T14:36:08.728Z,7.43
2023-05-02T14:41:12.017Z,7.80
2023-05-02T14:46:16.641Z,9.10
2023-05-02T14:51:20.247Z,9.48
2023-05-02T14:56:24.534Z,10.88
2023-05-02T15:01:30.581Z,9.80
2023-05-02T15:06:34.443Z,8.05
2023-05-02T15:11:38.011Z,5.95
2023-05-02T15:16:42.597Z,9.13
2023-05-02T15:21:46.683Z,7.75
2023-05-02T15:26:49.982Z,8.73
2023-05-02T15:31:55.740Z,4.70
2023-05-02T15:37:01.170Z,6.63
2023-05-02T15:42:05.086Z,7.75
2023-05-02T15:47:09.653Z,7.05
2023-05-02T15:52:13.446Z,7.93
2023-05-02T15:57:16.566Z,10.98
2023-05-02T16:02:21.997Z,3.33
2023-05-02T16:07:25.404Z,6.70
2023-05-02T16:12:29.254Z,4.65
2023-05-02T16:17:33.991Z,4.40
2023-05-02T16:22:37.269Z,5.80
2023-05-02T16:27:40.989Z,6.35
2023-05-02T16:32:45.617Z,5.95
2023-05-02T16:37:49.610Z,6.72
2023-05-02T16:42:52.899Z,5.65
2023-05-02T16:47:58.030Z,12.25
2023-05-02T16:53:03.767Z,6.85
2023-05-02T16:58:06.966Z,5.88
2023-05-02T17:03:12.022Z,4.50
2023-05-02T17:08:17.031Z,4.13
2023-05-02T17:13:20.336Z,6.00
2023-05-02T17:18:26.644Z,8.68
2023-05-02T17:23:30.378Z,4.55
2023-05-02T17:28:33.846Z,7.00
2023-05-02T17:33:38.599Z,5.85
2023-05-02T17:38:42.028Z,10.95
2023-05-02T17:43:45.204Z,7.38
2023-05-02T17:48:49.772Z,4.88
2023-05-02T17:53:53.022Z,7.65
2023-05-02T17:58:58.027Z,7.88
2023-05-02T18:04:07.479Z,9.00
2023-05-02T18:09:11.684Z,6.28
2023-05-02T18:14:15.676Z,6.85
2023-05-02T18:19:23.461Z,3.72
2023-05-02T18:24:28.417Z,9.88
2023-05-02T18:29:35.651Z,9.30
2023-05-02T18:34:42.880Z,6.40
2023-05-02T18:39:50.841Z,6.13
2023-05-02T18:44:59.366Z,6.20
2023-05-02T18:50:12.149Z,7.40
2023-05-02T18:55:16.714Z,6.32
2023-05-02T19:00:24.697Z,6.25
2023-05-02T19:05:40.366Z,4.40
2023-05-02T19:10:46.725Z,6.07
2023-05-02T19:15:54.571Z,4.32
2023-05-02T19:21:13.044Z,7.28
2023-05-02T19:26:30.153Z,6.33
2023-05-02T19:31:36.415Z,4.80
2023-05-02T19:36:52.264Z,6.23
2023-05-02T19:41:59.265Z,6.67
2023-05-02T19:47:14.603Z,5.40
2023-05-02T19:52:32.813Z,8.13
2023-05-02T19:57:54.486Z,5.83
2023-05-02T20:03:07.864Z,14.10
2023-05-02T20:08:32.137Z,8.07
2023-05-02T20:13:37.920Z,9.73
2023-05-02T20:18:48.378Z,8.83
2023-05-02T20:23:57.006Z,6.37
2023-05-02T20:29:10.984Z,9.60
2023-05-02T20:34:18.656Z,7.67
2023-05-02T20:39:29.911Z,6.63
2023-05-02T20:44:46.264Z,7.33
2023-05-02T20:49:51.244Z,6.83
2023-05-02T20:54:57.870Z,4.97
2023-05-02T21:00:05.160Z,6.10
2023-05-02T21:05:10.050Z,7.77
2023-05-02T21:10:16.482Z,7.63
2023-05-02T21:15:21.756Z,4.27
2023-05-02T21:20:28.737Z,7.63
2023-05-02T21:25:34.608Z,4.37
2023-05-02T21:30:40.343Z,2.93
2023-05-02T21:35:46.818Z,2.67
2023-05-02T21:40:53.824Z,4.97
2023-05-02T21:45:58.611Z,4.33
2023-05-02T21:51:03.362Z,5.60
2023-05-02T21:56:12.175Z,3.80
2023-05-02T22:01:17.066Z,3.60
2023-05-02T22:06:21.677Z,4.47
2023-05-02T22:11:32.032Z,5.63
2023-05-02T22:16:37.790Z,4.57
2023-05-02T22:21:42.105Z,4.73
2023-05-02T22:26:55.836Z,3.60
2023-05-02T22:32:01.465Z,3.57
2023-05-02T22:37:07.597Z,4.17
2023-05-02T22:42:14.610Z,2.80
2023-05-02T22:47:19.628Z,2.60
2023-05-02T22:52:27.584Z,4.47
2023-05-02T22:57:33.316Z,3.80
2023-05-02T23:02:38.624Z,2.80
2023-05-02T23:07:42.968Z,7.30
2023-05-02T23:12:48.705Z,7.17
2023-05-02T23:17:53.052Z,3.10
2023-05-02T23:22:59.912Z,5.63
2023-05-02T23:28:16.052Z,2.73
2023-05-02T23:33:21.417Z,4.23
2023-05-02T23:38:26.518Z,4.97
2023-05-02T23:43:34.718Z,2.83
2023-05-02T23:48:41.720Z,5.10
2023-05-02T23:53:47.130Z,6.70
2023-05-02T23:58:55.434Z,5.00
